createdAt,value
2019-02-16T00:01:29.209Z,37.87
2019-02-16T00:11:30.647Z,42.50
2019-02-16T00:21:32.188Z,34.03
2019-02-16T00:31:34.026Z,29.17
2019-02-16T00:41:35.345Z,28.63
2019-02-16T00:51:36.843Z,58.13
2019-02-16T01:01:39.272Z,31.33
2019-02-16T01:11:40.660Z,28.50
2019-02-16T01:21:42.096Z,26.23
2019-02-16T01:31:44.041Z,25.50
2019-02-16T01:41:47.480Z,22.73
2019-02-16T01:51:48.753Z,22.73
2019-02-16T02:01:51.241Z,21.80
2019-02-16T02:11:52.656Z,23.87
2019-02-16T02:21:54.199Z,23.47
2019-02-16T02:31:55.669Z,23.50
2019-02-16T02:41:57.093Z,19.57
2019-02-16T02:51:58.593Z,20.50
2019-02-16T03:02:01.092Z,20.33
2019-02-16T03:12:02.613Z,18.07
2019-02-16T03:22:04.151Z,18.43
2019-02-16T03:32:09.367Z,17.63
2019-02-16T03:42:10.772Z,18.17
2019-02-16T03:52:14.118Z,28.40
2019-02-16T04:02:16.540Z,35.17
2019-02-16T04:12:17.953Z,19.37
2019-02-16T04:22:24.673Z,17.30
2019-02-16T04:32:23.020Z,17.20
2019-02-16T04:42:24.428Z,15.53
2019-02-16T04:52:34.434Z,17.40
2019-02-16T05:02:30.856Z,25.93
2019-02-16T05:12:32.272Z,22.00
2019-02-16T05:22:33.804Z,24.37
2019-02-16T05:32:35.285Z,32.77
2019-02-16T05:42:36.697Z,20.23
2019-02-16T05:52:38.143Z,14.90
2019-02-16T06:02:40.516Z,20.63
2019-02-16T06:12:41.832Z,20.07
2019-02-16T06:22:43.353Z,18.07
2019-02-16T06:32:44.672Z,21.27
2019-02-16T06:42:46.073Z,17.37
2019-02-16T06:52:47.561Z,17.63
2019-02-16T07:02:50.033Z,18.37
2019-02-16T07:12:51.437Z,30.37
2019-02-16T07:22:52.937Z,62.17
2019-02-16T07:32:54.352Z,39.40
2019-02-16T07:42:56.465Z,32.33
2019-02-16T07:53:08.766Z,32.45
2019-02-16T08:03:18.009Z,35.10
2019-02-16T08:13:33.325Z,36.68
2019-02-16T08:23:53.633Z,30.77
2019-02-16T08:33:56.856Z,27.27
2019-02-16T08:44:05.957Z,26.55
2019-02-16T08:54:26.185Z,18.35
2019-02-16T09:04:31.752Z,19.35
2019-02-16T09:14:47.132Z,20.75
2019-02-16T09:24:50.556Z,28.12
2019-02-16T09:34:53.803Z,20.10
2019-02-16T09:44:59.621Z,14.63
2019-02-16T09:55:05.811Z,9.48
2019-02-16T10:05:13.548Z,7.42
2019-02-16T10:15:16.928Z,7.58
2019-02-16T10:25:32.464Z,10.20
2019-02-16T10:35:54.025Z,12.58
2019-02-16T10:46:06.656Z,12.85
2019-02-16T10:56:25.301Z,9.90
2019-02-16T11:06:36.333Z,7.80
2019-02-16T11:16:48.755Z,6.37
2019-02-16T11:27:04.465Z,5.97
2019-02-16T11:37:19.952Z,6.20
2019-02-16T11:47:39.744Z,3.60
2019-02-16T11:57:55.477Z,4.27
2019-02-16T12:08:07.419Z,4.47
2019-02-16T12:18:16.781Z,6.27
2019-02-16T12:28:38.849Z,6.07
2019-02-16T12:38:42.192Z,7.47
2019-02-16T12:48:57.778Z,9.10
2019-02-16T12:59:01.161Z,7.53
2019-02-16T13:09:19.640Z,9.00
2019-02-16T13:19:29.037Z,7.63
2019-02-16T13:29:32.436Z,6.97
2019-02-16T13:39:38.513Z,6.03
2019-02-16T13:49:41.808Z,12.83
2019-02-16T13:59:45.138Z,7.20
2019-02-16T14:10:05.310Z,8.83
2019-02-16T14:20:07.199Z,9.13
2019-02-16T14:30:11.204Z,10.40
2019-02-16T14:40:12.638Z,10.90
2019-02-16T14:50:14.041Z,16.03
2019-02-16T15:00:15.535Z,17.67
2019-02-16T15:10:18.597Z,16.13
2019-02-16T15:20:20.065Z,16.87
2019-02-16T15:30:21.613Z,20.83
2019-02-16T15:40:23.097Z,73.77
2019-02-16T15:50:24.524Z,243.80
2019-02-16T16:00:27.205Z,101.03
2019-02-16T16:10:35.040Z,46.90
2019-02-16T16:20:44.465Z,27.90
2019-02-16T16:30:48.045Z,41.57
2019-02-16T16:40:51.666Z,39.33
2019-02-16T16:51:01.064Z,41.10
2019-02-16T17:01:05.164Z,59.53
2019-02-16T17:11:11.356Z,106.50
2019-02-16T17:21:15.724Z,160.33
2019-02-16T17:31:19.030Z,177.53
2019-02-16T17:41:28.565Z,157.47
2019-02-16T17:51:34.504Z,154.57
2019-02-16T18:01:56.100Z,133.27
2019-02-16T18:12:03.238Z,205.20
2019-02-16T18:22:12.437Z,164.33
2019-02-16T18:32:30.800Z,203.73
2019-02-16T18:42:33.068Z,179.17
2019-02-16T18:52:45.392Z,306.80
2019-02-16T19:02:54.697Z,187.33
2019-02-16T19:12:58.989Z,83.87
2019-02-16T19:23:02.313Z,106.53
2019-02-16T19:33:05.749Z,79.83
2019-02-16T19:43:09.136Z,39.27
2019-02-16T19:53:32.323Z,58.70
2019-02-16T20:03:35.624Z,205.87
2019-02-16T20:13:39.105Z,40.40
2019-02-16T20:23:42.434Z,23.57
2019-02-16T20:33:48.710Z,24.07
2019-02-16T20:43:53.328Z,34.40
2019-02-16T20:54:02.447Z,23.10
2019-02-16T21:04:05.795Z,31.93
2019-02-16T21:14:12.849Z,38.23
2019-02-16T21:24:18.744Z,278.87
2019-02-16T21:34:29.779Z,72.40
2019-02-16T21:44:33.515Z,54.53
2019-02-16T21:54:36.877Z,61.43
2019-02-16T22:04:52.161Z,51.03
2019-02-16T22:14:54.655Z,65.30
2019-02-16T22:24:56.077Z,88.97
2019-02-16T22:34:57.606Z,107.10
2019-02-16T22:44:59.108Z,81.63
2019-02-16T22:55:00.509Z,77.30
2019-02-16T23:05:02.201Z,68.33
2019-02-16T23:15:08.535Z,66.73
2019-02-16T23:25:10.153Z,62.73
2019-02-16T23:35:11.753Z,63.50
2019-02-16T23:45:13.445Z,48.50
2019-02-16T23:55:14.858Z,42.70
